PASY METAR and TAF weather

Enter ICAO airport designator
Station Type Date Time Source
PASY METAR 2022/08/12 14:58 UTC NOAA

PASY 121458Z AUTO M 5/8SM BR M M A3002 RMK AO2 SLPNO 57005 RVRNO PNO FZRANO $


Station Type Date Time Source
PASY Decoded METAR 2022/08/12 14:58 UTC NOAA

SHEMYA EARECKSON AS, AK, United States (PASY) 52-43N 174-07E
Aug 12, 2022 - 10:58 AM EDT / 2022.08.12 1458 UTC
Visibility: 5/8 mile(s):0
Weather: mist
Pressure (altimeter): 30.02 in. Hg (1016 hPa)
Pressure tendency: 0.01 inches (0.5 hPa) lower than three hours ago
ob: PASY 121458Z AUTO M 5/8SM BR M M A3002 RMK AO2 SLPNO 57005 RVRNO PNO FZRANO
cycle: 15

Station Type Date Time Source
PASY TAF 2022/08/12 14:31 UTC NOAA

TAF PASY 121400Z 1214/1320 23015KT 9000 BR OVC003 QNH3000INS
TEMPO 1216/1220 3200 BR
BECMG 1303/1304 19006KT 8000 -RA OVC003 QNH2992INS
BECMG 1309/1310 22006KT 8000 DZ BR OVC002 QNH2989INS
BECMG 1319/1320 VRB06KT 4800 BR OVC002 QNH2991INS TX11/1306Z TN10/1300Z

Example: see airport list